Leathersville, Georgia
Current Conditions -  °F | °C
As of 12:15 PM on Friday 24 Oct 2014 (Local Time) from KHQU Reporting Station
Clear Clear  
Wind Chill: 20°   Ceiling: Unl
Heat Index: 20°   Visibility: 10mi
Dew Point: 12°   Wind: 0mph
Humidity: 59%   Direction: NA
Pressure: 30.12"   Gusts: NA
Location:  33.7816°N, 82.4511°W
Report Text: KHQU 241615Z AUTO 00000KT 10SM CLR 20/12 A3012 RMK AO1 T02020119
Loading
Personal Weather Stations






























Interactive Weather Map
Tropical Storm Tracking
New forecast layout! Learn more

10-Day Weather Forecast

Advertisements
Track Severe Weather on mobile